sensor_id;sensor_type;location;lat;lon;timestamp;temperature;humidity
65396;HTU21D;52004;45.136;39.010;2023-01-10T00:01:56;-5.54;67.01
65396;HTU21D;52004;45.136;39.010;2023-01-10T00:04:22;-5.56;67.02
65396;HTU21D;52004;45.136;39.010;2023-01-10T00:06:51;-5.54;67.03
65396;HTU21D;52004;45.136;39.010;2023-01-10T00:09:17;-5.55;67.00
65396;HTU21D;52004;45.136;39.010;2023-01-10T00:11:43;-5.59;67.01
65396;HTU21D;52004;45.136;39.010;2023-01-10T00:14:27;-5.61;67.02
65396;HTU21D;52004;45.136;39.010;2023-01-10T00:16:53;-5.63;67.03
65396;HTU21D;52004;45.136;39.010;2023-01-10T00:19:19;-5.65;67.11
65396;HTU21D;52004;45.136;39.010;2023-01-10T00:21:45;-5.67;67.07
65396;HTU21D;52004;45.136;39.010;2023-01-10T00:24:11;-5.69;67.08
65396;HTU21D;52004;45.136;39.010;2023-01-10T00:26:49;-5.74;67.11
65396;HTU21D;52004;45.136;39.010;2023-01-10T00:29:23;-5.76;67.17
65396;HTU21D;52004;45.136;39.010;2023-01-10T00:31:49;-5.79;67.18
65396;HTU21D;52004;45.136;39.010;2023-01-10T00:34:15;-5.79;67.17
65396;HTU21D;52004;45.136;39.010;2023-01-10T00:36:41;-5.82;67.17
65396;HTU21D;52004;45.136;39.010;2023-01-10T00:39:10;-5.85;67.18
65396;HTU21D;52004;45.136;39.010;2023-01-10T00:41:36;-5.87;67.20
65396;HTU21D;52004;45.136;39.010;2023-01-10T00:44:20;-5.88;67.17
65396;HTU21D;52004;45.136;39.010;2023-01-10T00:46:46;-5.88;67.13
65396;HTU21D;52004;45.136;39.010;2023-01-10T00:49:12;-5.89;67.16
65396;HTU21D;52004;45.136;39.010;2023-01-10T00:51:41;-5.92;67.18
65396;HTU21D;52004;45.136;39.010;2023-01-10T00:54:10;-5.92;67.15
65396;HTU21D;52004;45.136;39.010;2023-01-10T00:56:37;-5.94;67.15
65396;HTU21D;52004;45.136;39.010;2023-01-10T00:59:03;-5.99;67.16
65396;HTU21D;52004;45.136;39.010;2023-01-10T01:01:29;-5.98;67.19
65396;HTU21D;52004;45.136;39.010;2023-01-10T01:03:55;-5.99;67.17
65396;HTU21D;52004;45.136;39.010;2023-01-10T01:06:21;-6.01;67.17
65396;HTU21D;52004;45.136;39.010;2023-01-10T01:08:47;-6.04;67.22
65396;HTU21D;52004;45.136;39.010;2023-01-10T01:11:13;-6.05;67.21
65396;HTU21D;52004;45.136;39.010;2023-01-10T01:13:39;-6.04;67.22
65396;HTU21D;52004;45.136;39.010;2023-01-10T01:16:05;-6.06;67.18
65396;HTU21D;52004;45.136;39.010;2023-01-10T01:18:31;-6.07;67.17
65396;HTU21D;52004;45.136;39.010;2023-01-10T01:20:57;-6.06;67.15
65396;HTU21D;52004;45.136;39.010;2023-01-10T01:23:26;-6.09;67.15
65396;HTU21D;52004;45.136;39.010;2023-01-10T01:25:54;-6.11;67.19
65396;HTU21D;52004;45.136;39.010;2023-01-10T01:28:20;-6.15;67.20
65396;HTU21D;52004;45.136;39.010;2023-01-10T01:30:46;-6.15;67.24
65396;HTU21D;52004;45.136;39.010;2023-01-10T01:33:12;-6.16;67.21
65396;HTU21D;52004;45.136;39.010;2023-01-10T01:35:42;-6.16;67.23
65396;HTU21D;52004;45.136;39.010;2023-01-10T01:38:08;-6.18;67.21
65396;HTU21D;52004;45.136;39.010;2023-01-10T01:40:34;-6.18;67.18
65396;HTU21D;52004;45.136;39.010;2023-01-10T01:43:02;-6.18;67.15
65396;HTU21D;52004;45.136;39.010;2023-01-10T01:50:38;-6.21;67.13
65396;HTU21D;52004;45.136;39.010;2023-01-10T01:53:07;-6.27;67.20
65396;HTU21D;52004;45.136;39.010;2023-01-10T01:55:34;-6.27;67.20
65396;HTU21D;52004;45.136;39.010;2023-01-10T01:58:02;-6.29;67.23
65396;HTU21D;52004;45.136;39.010;2023-01-10T02:00:29;-6.30;67.21
65396;HTU21D;52004;45.136;39.010;2023-01-10T02:02:55;-6.30;67.19
65396;HTU21D;52004;45.136;39.010;2023-01-10T02:05:23;-6.32;67.22
65396;HTU21D;52004;45.136;39.010;2023-01-10T02:07:51;-6.33;67.21
65396;HTU21D;52004;45.136;39.010;2023-01-10T02:10:20;-6.34;67.19
65396;HTU21D;52004;45.136;39.010;2023-01-10T02:12:50;-6.35;67.23
65396;HTU21D;52004;45.136;39.010;2023-01-10T02:15:17;-6.35;67.20
65396;HTU21D;52004;45.136;39.010;2023-01-10T02:17:45;-6.35;67.15
65396;HTU21D;52004;45.136;39.010;2023-01-10T02:20:12;-6.36;67.14
65396;HTU21D;52004;45.136;39.010;2023-01-10T02:33:40;-6.43;67.10
65396;HTU21D;52004;45.136;39.010;2023-01-10T02:38:47;-6.46;67.14
65396;HTU21D;52004;45.136;39.010;2023-01-10T02:43:46;-6.48;67.16
65396;HTU21D;52004;45.136;39.010;2023-01-10T02:46:17;-6.50;67.18
65396;HTU21D;52004;45.136;39.010;2023-01-10T02:48:52;-6.51;67.20
65396;HTU21D;52004;45.136;39.010;2023-01-10T02:51:19;-6.48;67.18
65396;HTU21D;52004;45.136;39.010;2023-01-10T02:53:54;-6.49;67.13
65396;HTU21D;52004;45.136;39.010;2023-01-10T02:59:03;-6.50;67.10
65396;HTU21D;52004;45.136;39.010;2023-01-10T03:04:11;-6.53;67.19
65396;HTU21D;52004;45.136;39.010;2023-01-10T03:11:36;-6.52;67.16
65396;HTU21D;52004;45.136;39.010;2023-01-10T03:14:20;-6.56;67.15
65396;HTU21D;52004;45.136;39.010;2023-01-10T03:16:49;-6.56;67.17
65396;HTU21D;52004;45.136;39.010;2023-01-10T03:19:17;-6.56;67.15
65396;HTU21D;52004;45.136;39.010;2023-01-10T03:21:45;-6.52;67.07
65396;HTU21D;52004;45.136;39.010;2023-01-10T03:24:16;-6.56;67.10
65396;HTU21D;52004;45.136;39.010;2023-01-10T03:26:48;-6.56;67.15
65396;HTU21D;52004;45.136;39.010;2023-01-10T03:29:24;-6.58;67.18
65396;HTU21D;52004;45.136;39.010;2023-01-10T03:31:54;-6.58;67.19
65396;HTU21D;52004;45.136;39.010;2023-01-10T03:34:21;-6.59;67.21
65396;HTU21D;52004;45.136;39.010;2023-01-10T03:39:33;-6.58;67.20
65396;HTU21D;52004;45.136;39.010;2023-01-10T03:42:15;-6.57;67.18
65396;HTU21D;52004;45.136;39.010;2023-01-10T03:49:43;-6.61;67.19
65396;HTU21D;52004;45.136;39.010;2023-01-10T03:52:13;-6.61;67.19
65396;HTU21D;52004;45.136;39.010;2023-01-10T03:54:43;-6.61;67.20
65396;HTU21D;52004;45.136;39.010;2023-01-10T03:57:16;-6.61;67.18
65396;HTU21D;52004;45.136;39.010;2023-01-10T03:59:43;-6.64;67.23
65396;HTU21D;52004;45.136;39.010;2023-01-10T04:02:09;-6.64;67.28
65396;HTU21D;52004;45.136;39.010;2023-01-10T04:04:35;-6.64;67.27
65396;HTU21D;52004;45.136;39.010;2023-01-10T04:07:00;-6.66;67.27
65396;HTU21D;52004;45.136;39.010;2023-01-10T04:09:26;-6.67;67.30
65396;HTU21D;52004;45.136;39.010;2023-01-10T04:11:52;-6.70;67.30
65396;HTU21D;52004;45.136;39.010;2023-01-10T04:14:18;-6.75;67.33
65396;HTU21D;52004;45.136;39.010;2023-01-10T04:16:44;-6.76;67.38
65396;HTU21D;52004;45.136;39.010;2023-01-10T04:19:10;-6.76;67.39
65396;HTU21D;52004;45.136;39.010;2023-01-10T04:21:36;-6.75;67.35
65396;HTU21D;52004;45.136;39.010;2023-01-10T04:24:02;-6.75;67.27
65396;HTU21D;52004;45.136;39.010;2023-01-10T04:26:28;-6.76;67.31
65396;HTU21D;52004;45.136;39.010;2023-01-10T04:28:53;-6.76;67.30
65396;HTU21D;52004;45.136;39.010;2023-01-10T04:31:19;-6.74;67.29
65396;HTU21D;52004;45.136;39.010;2023-01-10T04:33:47;-6.75;67.24
65396;HTU21D;52004;45.136;39.010;2023-01-10T04:36:13;-6.77;67.27
65396;HTU21D;52004;45.136;39.010;2023-01-10T04:38:39;-6.78;67.27
65396;HTU21D;52004;45.136;39.010;2023-01-10T04:41:05;-6.80;67.30
65396;HTU21D;52004;45.136;39.010;2023-01-10T04:43:31;-6.82;67.31
65396;HTU21D;52004;45.136;39.010;2023-01-10T04:45:57;-6.81;67.35
65396;HTU21D;52004;45.136;39.010;2023-01-10T04:48:23;-6.82;67.36
65396;HTU21D;52004;45.136;39.010;2023-01-10T04:50:49;-6.82;67.33
65396;HTU21D;52004;45.136;39.010;2023-01-10T04:53:16;-6.80;67.31
65396;HTU21D;52004;45.136;39.010;2023-01-10T04:55:42;-6.81;67.29
65396;HTU21D;52004;45.136;39.010;2023-01-10T04:58:08;-6.83;67.27
65396;HTU21D;52004;45.136;39.010;2023-01-10T05:00:34;-6.83;67.34
65396;HTU21D;52004;45.136;39.010;2023-01-10T05:02:59;-6.83;67.34
65396;HTU21D;52004;45.136;39.010;2023-01-10T05:05:25;-6.82;67.35
65396;HTU21D;52004;45.136;39.010;2023-01-10T05:07:53;-6.81;67.36
65396;HTU21D;52004;45.136;39.010;2023-01-10T05:10:19;-6.80;67.34
65396;HTU21D;52004;45.136;39.010;2023-01-10T05:12:45;-6.82;67.33
65396;HTU21D;52004;45.136;39.010;2023-01-10T05:15:11;-6.81;67.35
65396;HTU21D;52004;45.136;39.010;2023-01-10T05:17:37;-6.80;67.33
65396;HTU21D;52004;45.136;39.010;2023-01-10T05:20:04;-6.79;67.29
65396;HTU21D;52004;45.136;39.010;2023-01-10T05:22:30;-6.79;67.30
65396;HTU21D;52004;45.136;39.010;2023-01-10T05:24:56;0.00;67.29
65396;HTU21D;52004;45.136;39.010;2023-01-10T05:27:22;-6.76;67.30
65396;HTU21D;52004;45.136;39.010;2023-01-10T05:29:48;-6.75;67.25
65396;HTU21D;52004;45.136;39.010;2023-01-10T05:32:14;-6.75;67.30
65396;HTU21D;52004;45.136;39.010;2023-01-10T05:34:40;-6.74;67.23
65396;HTU21D;52004;45.136;39.010;2023-01-10T05:37:06;-6.73;67.29
65396;HTU21D;52004;45.136;39.010;2023-01-10T05:39:32;0.00;67.51
65396;HTU21D;52004;45.136;39.010;2023-01-10T05:41:59;-6.52;68.24
65396;HTU21D;52004;45.136;39.010;2023-01-10T05:44:25;-6.23;68.31
65396;HTU21D;52004;45.136;39.010;2023-01-10T05:46:51;-6.08;67.81
65396;HTU21D;52004;45.136;39.010;2023-01-10T05:49:17;-5.96;67.72
65396;HTU21D;52004;45.136;39.010;2023-01-10T05:51:42;-5.83;67.70
65396;HTU21D;52004;45.136;39.010;2023-01-10T05:54:08;-5.72;67.52
65396;HTU21D;52004;45.136;39.010;2023-01-10T05:56:40;-5.62;67.55
65396;HTU21D;52004;45.136;39.010;2023-01-10T05:59:07;-5.50;67.82
65396;HTU21D;52004;45.136;39.010;2023-01-10T06:01:33;-5.31;67.85
65396;HTU21D;52004;45.136;39.010;2023-01-10T06:03:59;0.00;68.13
65396;HTU21D;52004;45.136;39.010;2023-01-10T06:06:25;-4.79;68.06
65396;HTU21D;52004;45.136;39.010;2023-01-10T06:08:51;-4.50;68.58
65396;HTU21D;52004;45.136;39.010;2023-01-10T06:11:20;-4.28;68.30
65396;HTU21D;52004;45.136;39.010;2023-01-10T06:13:47;-4.06;68.36
65396;HTU21D;52004;45.136;39.010;2023-01-10T06:16:18;0.00;68.04
65396;HTU21D;52004;45.136;39.010;2023-01-10T06:18:44;-3.77;67.81
65396;HTU21D;52004;45.136;39.010;2023-01-10T06:21:10;-3.63;68.22
65396;HTU21D;52004;45.136;39.010;2023-01-10T06:23:36;-3.40;68.60
65396;HTU21D;52004;45.136;39.010;2023-01-10T06:26:02;-3.23;68.38
65396;HTU21D;52004;45.136;39.010;2023-01-10T06:28:27;-3.10;68.07
65396;HTU21D;52004;45.136;39.010;2023-01-10T06:30:53;-3.00;67.84
65396;HTU21D;52004;45.136;39.010;2023-01-10T06:33:19;-2.93;67.79
65396;HTU21D;52004;45.136;39.010;2023-01-10T06:35:45;-2.80;68.14
65396;HTU21D;52004;45.136;39.010;2023-01-10T06:38:13;-2.61;68.49
65396;HTU21D;52004;45.136;39.010;2023-01-10T06:40:39;-2.34;68.84
65396;HTU21D;52004;45.136;39.010;2023-01-10T06:43:05;-2.08;68.89
65396;HTU21D;52004;45.136;39.010;2023-01-10T06:45:31;-1.80;69.01
65396;HTU21D;52004;45.136;39.010;2023-01-10T06:47:57;-1.56;68.72
65396;HTU21D;52004;45.136;39.010;2023-01-10T06:50:24;-1.47;68.45
65396;HTU21D;52004;45.136;39.010;2023-01-10T06:53:00;-1.30;68.91
65396;HTU21D;52004;45.136;39.010;2023-01-10T06:55:26;0.00;69.55
65396;HTU21D;52004;45.136;39.010;2023-01-10T06:57:56;-0.61;70.21
65396;HTU21D;52004;45.136;39.010;2023-01-10T07:00:23;-0.22;70.28
65396;HTU21D;52004;45.136;39.010;2023-01-10T07:02:50;0.12;70.18
65396;HTU21D;52004;45.136;39.010;2023-01-10T07:05:16;0.35;69.64
65396;HTU21D;52004;45.136;39.010;2023-01-10T07:07:42;0.57;69.91
65396;HTU21D;52004;45.136;39.010;2023-01-10T07:10:08;0.80;69.87
65396;HTU21D;52004;45.136;39.010;2023-01-10T07:12:34;1.02;69.63
65396;HTU21D;52004;45.136;39.010;2023-01-10T07:14:59;1.09;69.23
65396;HTU21D;52004;45.136;39.010;2023-01-10T07:17:25;1.23;69.39
65396;HTU21D;52004;45.136;39.010;2023-01-10T07:19:51;1.34;69.36
65396;HTU21D;52004;45.136;39.010;2023-01-10T07:22:17;1.47;69.35
65396;HTU21D;52004;45.136;39.010;2023-01-10T07:24:43;1.68;69.91
65396;HTU21D;52004;45.136;39.010;2023-01-10T07:27:09;1.92;69.76
65396;HTU21D;52004;45.136;39.010;2023-01-10T07:29:35;1.98;68.90
65396;HTU21D;52004;45.136;39.010;2023-01-10T07:32:01;1.87;67.06
65396;HTU21D;52004;45.136;39.010;2023-01-10T07:34:27;1.40;64.13
65396;HTU21D;52004;45.136;39.010;2023-01-10T07:36:53;0.84;63.41
65396;HTU21D;52004;45.136;39.010;2023-01-10T07:39:19;0.27;63.21
65396;HTU21D;52004;45.136;39.010;2023-01-10T07:41:47;-0.30;63.34
65396;HTU21D;52004;45.136;39.010;2023-01-10T07:44:15;-0.72;63.76
65396;HTU21D;52004;45.136;39.010;2023-01-10T07:46:41;-1.00;63.58
65396;HTU21D;52004;45.136;39.010;2023-01-10T07:49:07;-1.30;63.51
65396;HTU21D;52004;45.136;39.010;2023-01-10T07:51:33;-1.54;63.98
65396;HTU21D;52004;45.136;39.010;2023-01-10T07:53:59;-1.72;63.58
65396;HTU21D;52004;45.136;39.010;2023-01-10T07:56:26;-1.92;63.34
65396;HTU21D;52004;45.136;39.010;2023-01-10T07:58:52;-2.06;63.87
65396;HTU21D;52004;45.136;39.010;2023-01-10T08:01:17;0.00;63.88
65396;HTU21D;52004;45.136;39.010;2023-01-10T08:03:43;-2.14;63.99
65396;HTU21D;52004;45.136;39.010;2023-01-10T08:06:09;-2.16;64.00
65396;HTU21D;52004;45.136;39.010;2023-01-10T08:08:36;-2.15;63.95
65396;HTU21D;52004;45.136;39.010;2023-01-10T08:11:02;-2.17;63.63
65396;HTU21D;52004;45.136;39.010;2023-01-10T08:13:28;-2.24;63.63
65396;HTU21D;52004;45.136;39.010;2023-01-10T08:15:54;-2.31;63.65
65396;HTU21D;52004;45.136;39.010;2023-01-10T08:18:21;-2.32;63.48
65396;HTU21D;52004;45.136;39.010;2023-01-10T08:20:48;-2.36;63.50
65396;HTU21D;52004;45.136;39.010;2023-01-10T08:23:15;-2.38;63.60
65396;HTU21D;52004;45.136;39.010;2023-01-10T08:25:41;-2.38;63.59
65396;HTU21D;52004;45.136;39.010;2023-01-10T08:28:07;-2.36;63.44
65396;HTU21D;52004;45.136;39.010;2023-01-10T08:30:33;-2.35;63.56
65396;HTU21D;52004;45.136;39.010;2023-01-10T08:33:03;-2.32;63.45
65396;HTU21D;52004;45.136;39.010;2023-01-10T08:35:29;-2.28;63.54
65396;HTU21D;52004;45.136;39.010;2023-01-10T08:37:58;-2.23;63.29
65396;HTU21D;52004;45.136;39.010;2023-01-10T08:40:25;-2.22;63.17
65396;HTU21D;52004;45.136;39.010;2023-01-10T08:42:57;-2.23;63.06
65396;HTU21D;52004;45.136;39.010;2023-01-10T08:45:24;-2.24;63.12
65396;HTU21D;52004;45.136;39.010;2023-01-10T08:47:50;-2.20;63.34
65396;HTU21D;52004;45.136;39.010;2023-01-10T08:50:15;-2.17;63.34
65396;HTU21D;52004;45.136;39.010;2023-01-10T08:52:41;-2.13;63.31
65396;HTU21D;52004;45.136;39.010;2023-01-10T08:55:07;-2.12;63.00
65396;HTU21D;52004;45.136;39.010;2023-01-10T08:57:33;-2.08;63.26
65396;HTU21D;52004;45.136;39.010;2023-01-10T08:59:59;-2.06;63.23
65396;HTU21D;52004;45.136;39.010;2023-01-10T09:02:25;-2.03;63.16
65396;HTU21D;52004;45.136;39.010;2023-01-10T09:04:51;-2.01;63.18
65396;HTU21D;52004;45.136;39.010;2023-01-10T09:07:17;-1.97;63.10
65396;HTU21D;52004;45.136;39.010;2023-01-10T09:09:43;-1.93;63.08
65396;HTU21D;52004;45.136;39.010;2023-01-10T09:12:09;-1.90;63.11
65396;HTU21D;52004;45.136;39.010;2023-01-10T09:14:53;-1.86;62.90
65396;HTU21D;52004;45.136;39.010;2023-01-10T09:17:20;-1.79;63.10
65396;HTU21D;52004;45.136;39.010;2023-01-10T09:19:46;-1.73;62.87
65396;HTU21D;52004;45.136;39.010;2023-01-10T09:22:11;-1.71;62.73
65396;HTU21D;52004;45.136;39.010;2023-01-10T09:24:37;-1.65;62.96
65396;HTU21D;52004;45.136;39.010;2023-01-10T09:27:04;-1.59;63.07
65396;HTU21D;52004;45.136;39.010;2023-01-10T09:29:29;-1.52;63.58
65396;HTU21D;52004;45.136;39.010;2023-01-10T09:31:55;-1.34;66.10
65396;HTU21D;52004;45.136;39.010;2023-01-10T09:34:21;-0.95;69.80
65396;HTU21D;52004;45.136;39.010;2023-01-10T09:36:49;-0.37;71.55
65396;HTU21D;52004;45.136;39.010;2023-01-10T09:39:15;0.25;72.00
65396;HTU21D;52004;45.136;39.010;2023-01-10T09:46:55;2.21;72.51
65396;HTU21D;52004;45.136;39.010;2023-01-10T09:49:37;2.61;71.66
65396;HTU21D;52004;45.136;39.010;2023-01-10T09:52:05;3.06;72.05
65396;HTU21D;52004;45.136;39.010;2023-01-10T09:54:37;3.47;72.04
65396;HTU21D;52004;45.136;39.010;2023-01-10T09:57:05;3.85;72.06
65396;HTU21D;52004;45.136;39.010;2023-01-10T09:59:35;4.14;71.56
65396;HTU21D;52004;45.136;39.010;2023-01-10T10:07:45;4.71;71.06
65396;HTU21D;52004;45.136;39.010;2023-01-10T10:10:16;4.91;70.84
65396;HTU21D;52004;45.136;39.010;2023-01-10T10:13:20;4.93;69.68
65396;HTU21D;52004;45.136;39.010;2023-01-10T10:18:08;5.11;69.89
65396;HTU21D;52004;45.136;39.010;2023-01-10T10:25:48;5.65;70.12
65396;HTU21D;52004;45.136;39.010;2023-01-10T10:31:07;5.99;70.00
65396;HTU21D;52004;45.136;39.010;2023-01-10T10:36:07;6.25;69.21
65396;HTU21D;52004;45.136;39.010;2023-01-10T10:38:36;6.41;68.87
65396;HTU21D;52004;45.136;39.010;2023-01-10T10:41:03;6.53;69.26
65396;HTU21D;52004;45.136;39.010;2023-01-10T10:43:33;6.43;67.34
65396;HTU21D;52004;45.136;39.010;2023-01-10T10:46:01;6.28;67.62
65396;HTU21D;52004;45.136;39.010;2023-01-10T10:48:30;6.44;68.02
65396;HTU21D;52004;45.136;39.010;2023-01-10T10:51:06;6.56;68.06
65396;HTU21D;52004;45.136;39.010;2023-01-10T10:53:34;6.59;67.00
65396;HTU21D;52004;45.136;39.010;2023-01-10T10:56:01;6.55;66.85
65396;HTU21D;52004;45.136;39.010;2023-01-10T10:58:27;6.54;66.53
65396;HTU21D;52004;45.136;39.010;2023-01-10T11:00:55;6.66;67.17
65396;HTU21D;52004;45.136;39.010;2023-01-10T11:03:24;6.75;66.36
65396;HTU21D;52004;45.136;39.010;2023-01-10T11:05:51;6.70;65.69
65396;HTU21D;52004;45.136;39.010;2023-01-10T11:08:18;6.64;65.43
65396;HTU21D;52004;45.136;39.010;2023-01-10T11:10:51;6.66;65.31
65396;HTU21D;52004;45.136;39.010;2023-01-10T11:15:44;6.85;65.91
65396;HTU21D;52004;45.136;39.010;2023-01-10T11:18:15;6.88;65.04
65396;HTU21D;52004;45.136;39.010;2023-01-10T11:20:50;6.81;64.68
65396;HTU21D;52004;45.136;39.010;2023-01-10T11:23:24;6.85;64.55
65396;HTU21D;52004;45.136;39.010;2023-01-10T11:25:52;6.96;64.72
65396;HTU21D;52004;45.136;39.010;2023-01-10T11:28:19;7.13;64.27
65396;HTU21D;52004;45.136;39.010;2023-01-10T11:30:47;7.18;63.82
65396;HTU21D;52004;45.136;39.010;2023-01-10T11:33:20;7.15;63.67
65396;HTU21D;52004;45.136;39.010;2023-01-10T11:35:56;7.12;62.89
65396;HTU21D;52004;45.136;39.010;2023-01-10T11:38:23;6.99;62.47
65396;HTU21D;52004;45.136;39.010;2023-01-10T11:40:53;6.87;62.37
65396;HTU21D;52004;45.136;39.010;2023-01-10T11:45:52;6.87;61.79
65396;HTU21D;52004;45.136;39.010;2023-01-10T11:48:22;6.70;61.14
65396;HTU21D;52004;45.136;39.010;2023-01-10T11:50:49;6.65;61.45
65396;HTU21D;52004;45.136;39.010;2023-01-10T11:56:22;6.68;60.65
65396;HTU21D;52004;45.136;39.010;2023-01-10T11:58:49;6.73;60.61
65396;HTU21D;52004;45.136;39.010;2023-01-10T12:04:13;6.59;59.96
65396;HTU21D;52004;45.136;39.010;2023-01-10T12:06:43;6.52;60.16
65396;HTU21D;52004;45.136;39.010;2023-01-10T12:09:32;6.57;60.08
65396;HTU21D;52004;45.136;39.010;2023-01-10T12:12:03;6.68;59.93
65396;HTU21D;52004;45.136;39.010;2023-01-10T12:14:30;6.65;59.64
65396;HTU21D;52004;45.136;39.010;2023-01-10T12:17:00;6.57;59.71
65396;HTU21D;52004;45.136;39.010;2023-01-10T12:19:27;6.50;59.57
65396;HTU21D;52004;45.136;39.010;2023-01-10T12:21:53;6.29;59.51
65396;HTU21D;52004;45.136;39.010;2023-01-10T12:24:27;6.25;59.96
65396;HTU21D;52004;45.136;39.010;2023-01-10T12:26:53;6.25;60.04
65396;HTU21D;52004;45.136;39.010;2023-01-10T12:29:20;6.22;59.99
65396;HTU21D;52004;45.136;39.010;2023-01-10T12:31:47;6.25;59.97
65396;HTU21D;52004;45.136;39.010;2023-01-10T12:34:15;6.25;59.95
65396;HTU21D;52004;45.136;39.010;2023-01-10T12:36:59;6.10;59.64
65396;HTU21D;52004;45.136;39.010;2023-01-10T12:39:33;5.85;59.60
65396;HTU21D;52004;45.136;39.010;2023-01-10T12:44:50;5.70;59.84
65396;HTU21D;52004;45.136;39.010;2023-01-10T12:49:51;5.53;59.77
65396;HTU21D;52004;45.136;39.010;2023-01-10T12:52:23;5.57;59.84
65396;HTU21D;52004;45.136;39.010;2023-01-10T12:54:52;5.55;59.86
65396;HTU21D;52004;45.136;39.010;2023-01-10T12:57:22;5.55;59.87
65396;HTU21D;52004;45.136;39.010;2023-01-10T12:59:49;5.61;60.05
65396;HTU21D;52004;45.136;39.010;2023-01-10T13:02:17;5.63;59.92
65396;HTU21D;52004;45.136;39.010;2023-01-10T13:04:48;5.54;59.80
65396;HTU21D;52004;45.136;39.010;2023-01-10T13:07:16;5.26;59.50
65396;HTU21D;52004;45.136;39.010;2023-01-10T13:09:43;5.10;59.86
65396;HTU21D;52004;45.136;39.010;2023-01-10T13:12:10;5.13;59.68
65396;HTU21D;52004;45.136;39.010;2023-01-10T13:14:50;4.98;59.76
65396;HTU21D;52004;45.136;39.010;2023-01-10T13:17:28;4.91;59.73
65396;HTU21D;52004;45.136;39.010;2023-01-10T13:22:43;4.41;58.84
65396;HTU21D;52004;45.136;39.010;2023-01-10T13:25:23;4.10;58.39
65396;HTU21D;52004;45.136;39.010;2023-01-10T13:30:30;3.42;58.40
65396;HTU21D;52004;45.136;39.010;2023-01-10T13:33:02;3.13;58.28
65396;HTU21D;52004;45.136;39.010;2023-01-10T13:35:35;2.87;58.48
65396;HTU21D;52004;45.136;39.010;2023-01-10T13:38:02;2.68;58.54
65396;HTU21D;52004;45.136;39.010;2023-01-10T13:40:28;2.52;58.62
65396;HTU21D;52004;45.136;39.010;2023-01-10T13:51:16;1.99;58.58
65396;HTU21D;52004;45.136;39.010;2023-01-10T13:59:03;1.67;58.46
65396;HTU21D;52004;45.136;39.010;2023-01-10T14:01:49;1.48;58.58
65396;HTU21D;52004;45.136;39.010;2023-01-10T14:04:34;1.33;58.74
65396;HTU21D;52004;45.136;39.010;2023-01-10T14:09:46;1.12;58.58
65396;HTU21D;52004;45.136;39.010;2023-01-10T14:12:23;0.98;58.81
65396;HTU21D;52004;45.136;39.010;2023-01-10T14:15:00;0.84;58.85
65396;HTU21D;52004;45.136;39.010;2023-01-10T14:17:28;0.69;59.01
65396;HTU21D;52004;45.136;39.010;2023-01-10T14:20:01;0.64;59.06
65396;HTU21D;52004;45.136;39.010;2023-01-10T14:22:32;0.61;58.96
65396;HTU21D;52004;45.136;39.010;2023-01-10T14:24:59;0.52;58.88
65396;HTU21D;52004;45.136;39.010;2023-01-10T14:27:26;0.40;59.04
65396;HTU21D;52004;45.136;39.010;2023-01-10T14:29:53;0.36;59.04
65396;HTU21D;52004;45.136;39.010;2023-01-10T14:32:29;0.29;59.03
65396;HTU21D;52004;45.136;39.010;2023-01-10T14:34:56;0.19;59.14
65396;HTU21D;52004;45.136;39.010;2023-01-10T14:37:27;0.14;59.15
65396;HTU21D;52004;45.136;39.010;2023-01-10T14:39:54;0.09;59.16
65396;HTU21D;52004;45.136;39.010;2023-01-10T14:42:20;-0.00;59.16
65396;HTU21D;52004;45.136;39.010;2023-01-10T14:44:52;-0.08;59.23
65396;HTU21D;52004;45.136;39.010;2023-01-10T14:47:27;-0.16;59.34
65396;HTU21D;52004;45.136;39.010;2023-01-10T14:49:53;-0.22;59.29
65396;HTU21D;52004;45.136;39.010;2023-01-10T14:52:25;-0.29;59.38
65396;HTU21D;52004;45.136;39.010;2023-01-10T14:55:02;-0.38;59.40
65396;HTU21D;52004;45.136;39.010;2023-01-10T14:57:28;-0.43;59.57
65396;HTU21D;52004;45.136;39.010;2023-01-10T15:00:02;-0.42;59.50
65396;HTU21D;52004;45.136;39.010;2023-01-10T15:02:29;-0.45;59.45
65396;HTU21D;52004;45.136;39.010;2023-01-10T15:04:59;-0.46;59.43
65396;HTU21D;52004;45.136;39.010;2023-01-10T15:07:26;-0.51;59.42
65396;HTU21D;52004;45.136;39.010;2023-01-10T15:09:54;-0.56;59.43
65396;HTU21D;52004;45.136;39.010;2023-01-10T15:12:22;-0.65;59.48
65396;HTU21D;52004;45.136;39.010;2023-01-10T15:14:49;-0.73;59.62
65396;HTU21D;52004;45.136;39.010;2023-01-10T15:17:19;-0.76;59.61
65396;HTU21D;52004;45.136;39.010;2023-01-10T15:19:46;-0.84;59.70
65396;HTU21D;52004;45.136;39.010;2023-01-10T15:22:17;-0.87;59.65
65396;HTU21D;52004;45.136;39.010;2023-01-10T15:24:43;-0.89;59.63
65396;HTU21D;52004;45.136;39.010;2023-01-10T15:27:21;-0.96;59.70
65396;HTU21D;52004;45.136;39.010;2023-01-10T15:29:47;-1.00;59.73
65396;HTU21D;52004;45.136;39.010;2023-01-10T15:32:18;-1.03;59.66
65396;HTU21D;52004;45.136;39.010;2023-01-10T15:34:50;-1.13;59.68
65396;HTU21D;52004;45.136;39.010;2023-01-10T15:37:18;-1.24;59.78
65396;HTU21D;52004;45.136;39.010;2023-01-10T15:39:46;-1.28;59.77
65396;HTU21D;52004;45.136;39.010;2023-01-10T15:42:12;-1.35;59.79
65396;HTU21D;52004;45.136;39.010;2023-01-10T15:44:40;-1.39;59.87
65396;HTU21D;52004;45.136;39.010;2023-01-10T15:49:54;-1.53;59.82
65396;HTU21D;52004;45.136;39.010;2023-01-10T15:52:20;-1.58;59.78
65396;HTU21D;52004;45.136;39.010;2023-01-10T15:54:47;-1.67;59.94
65396;HTU21D;52004;45.136;39.010;2023-01-10T15:57:26;-1.69;59.86
65396;HTU21D;52004;45.136;39.010;2023-01-10T15:59:54;-1.75;59.91
65396;HTU21D;52004;45.136;39.010;2023-01-10T16:02:21;-1.80;59.93
65396;HTU21D;52004;45.136;39.010;2023-01-10T16:04:55;-1.86;59.97
65396;HTU21D;52004;45.136;39.010;2023-01-10T16:09:49;-1.90;59.95
65396;HTU21D;52004;45.136;39.010;2023-01-10T16:12:49;-1.92;59.98
65396;HTU21D;52004;45.136;39.010;2023-01-10T16:15:27;-1.99;59.92
65396;HTU21D;52004;45.136;39.010;2023-01-10T16:17:53;-2.10;59.99
65396;HTU21D;52004;45.136;39.010;2023-01-10T16:20:21;-2.20;60.06
65396;HTU21D;52004;45.136;39.010;2023-01-10T16:22:48;-2.24;60.16
65396;HTU21D;52004;45.136;39.010;2023-01-10T16:25:16;-2.28;60.18
65396;HTU21D;52004;45.136;39.010;2023-01-10T16:27:42;-2.36;60.11
65396;HTU21D;52004;45.136;39.010;2023-01-10T16:30:26;-2.44;60.25
65396;HTU21D;52004;45.136;39.010;2023-01-10T16:32:53;-2.49;60.29
65396;HTU21D;52004;45.136;39.010;2023-01-10T16:35:19;-2.51;60.35
65396;HTU21D;52004;45.136;39.010;2023-01-10T16:37:46;-2.57;60.28
65396;HTU21D;52004;45.136;39.010;2023-01-10T16:40:20;-2.64;60.31
65396;HTU21D;52004;45.136;39.010;2023-01-10T16:42:46;-2.69;60.38
65396;HTU21D;52004;45.136;39.010;2023-01-10T16:45:30;-2.69;60.33
65396;HTU21D;52004;45.136;39.010;2023-01-10T16:47:56;-2.74;60.34
65396;HTU21D;52004;45.136;39.010;2023-01-10T16:50:22;-2.78;60.26
65396;HTU21D;52004;45.136;39.010;2023-01-10T16:52:48;-2.91;60.37
65396;HTU21D;52004;45.136;39.010;2023-01-10T16:55:14;-2.95;60.48
65396;HTU21D;52004;45.136;39.010;2023-01-10T16:57:41;-2.95;60.51
65396;HTU21D;52004;45.136;39.010;2023-01-10T17:00:14;-2.98;60.45